Time;durP1;ratioP1;P1;durP2;ratioP2;P2;SDS_P1;SDS_P2;PMS_P1;PMS_P2;Temp;Humidity;BMP_temperature;BMP_pressure;BME280_temperature;BME280_humidity;BME280_pressure;Samples;Min_cycle;Max_cycle;Signal;HPM_P1;HPM_P2
2021/11/08 00:01:53;;;;;;;;;;;16.30;42.30;;;;;;8365822;28;20259;-49
2021/11/08 00:05:53;;;;;;;;;;;16.30;42.40;;;;;;8365194;28;19920;-49
2021/11/08 00:09:55;;;;;;;;;;;16.30;42.30;;;;;;8365541;28;19924;-49
2021/11/08 00:13:58;;;;;;;;;;;16.30;42.40;;;;;;8364671;28;21512;-46
2021/11/08 00:22:00;;;;;;;;;;;16.30;42.40;;;;;;8365572;28;19923;-47
2021/11/08 00:26:01;;;;;;;;;;;16.30;42.40;;;;;;8365443;28;20063;-48
2021/11/08 00:30:03;;;;;;;;;;;16.30;42.30;;;;;;8364333;28;20394;-49
2021/11/08 00:34:04;;;;;;;;;;;16.30;42.30;;;;;;8364764;28;19920;-48
2021/11/08 00:38:05;;;;;;;;;;;16.30;42.40;;;;;;8364580;28;19923;-49
2021/11/08 00:42:05;;;;;;;;;;;16.30;42.40;;;;;;8364271;28;19921;-49
2021/11/08 00:46:06;;;;;;;;;;;16.30;42.40;;;;;;8364482;28;20440;-48
2021/11/08 00:50:07;;;;;;;;;;;16.30;42.40;;;;;;8364422;28;20285;-49
2021/11/08 00:54:11;;;;;;;;;;;16.30;42.40;;;;;;8363644;28;20329;-48
2021/11/08 00:58:53;;;;;;;;;;;16.30;42.40;;;;;;8364121;28;20378;-50
2021/11/08 01:02:35;;;;;;;;;;;16.30;42.40;;;;;;8359039;28;19974;-50
2021/11/08 01:06:36;;;;;;;;;;;16.30;42.40;;;;;;8363819;28;19916;-48
2021/11/08 01:10:36;;;;;;;;;;;16.30;42.40;;;;;;8363565;28;20275;-50
2021/11/08 01:14:37;;;;;;;;;;;16.30;42.40;;;;;;8363092;28;19917;-49
2021/11/08 01:18:38;;;;;;;;;;;16.30;42.40;;;;;;8363791;28;19962;-48
2021/11/08 01:22:39;;;;;;;;;;;16.30;42.40;;;;;;8363759;28;19927;-49
2021/11/08 01:26:39;;;;;;;;;;;16.30;42.40;;;;;;8363296;28;20365;-50
2021/11/08 01:30:40;;;;;;;;;;;16.30;42.40;;;;;;8363913;28;19923;-49
2021/11/08 01:34:40;;;;;;;;;;;16.30;42.40;;;;;;8363490;28;19921;-51
2021/11/08 01:38:47;;;;;;;;;;;16.30;42.40;;;;;;8363129;28;19921;-48
2021/11/08 01:42:48;;;;;;;;;;;16.40;42.40;;;;;;8368825;28;20423;-48
2021/11/08 01:46:48;;;;;;;;;;;16.30;42.40;;;;;;8363708;28;19917;-49
2021/11/08 01:50:49;;;;;;;;;;;16.30;42.40;;;;;;8362956;28;19917;-49
2021/11/08 01:54:50;;;;;;;;;;;16.30;42.40;;;;;;8363183;28;19964;-49
2021/11/08 01:58:50;;;;;;;;;;;16.30;42.40;;;;;;8363134;28;19917;-49
2021/11/08 02:02:51;;;;;;;;;;;16.30;42.40;;;;;;8362695;28;20388;-50
2021/11/08 02:06:52;;;;;;;;;;;16.30;42.40;;;;;;8363068;28;19974;-51
2021/11/08 02:10:54;;;;;;;;;;;16.30;42.40;;;;;;8361595;28;19924;-49
2021/11/08 02:14:54;;;;;;;;;;;16.30;42.50;;;;;;8362432;28;20344;-49
2021/11/08 02:18:56;;;;;;;;;;;16.30;42.40;;;;;;8362670;28;19917;-48
2021/11/08 02:22:59;;;;;;;;;;;16.30;42.50;;;;;;8364563;28;20305;-52
2021/11/08 02:27:00;;;;;;;;;;;16.30;42.40;;;;;;8368335;28;19924;-52
2021/11/08 02:31:01;;;;;;;;;;;16.30;42.40;;;;;;8368721;28;20413;-49
2021/11/08 02:35:05;;;;;;;;;;;16.30;42.40;;;;;;8368332;28;19920;-50
2021/11/08 02:39:06;;;;;;;;;;;16.30;42.40;;;;;;8368039;28;19921;-49
2021/11/08 02:43:06;;;;;;;;;;;16.30;42.40;;;;;;8368257;28;19921;-49
2021/11/08 02:47:07;;;;;;;;;;;16.30;42.50;;;;;;8368083;28;19940;-49
2021/11/08 02:51:15;;;;;;;;;;;16.40;42.50;;;;;;8367748;28;19921;-49
2021/11/08 02:55:18;;;;;;;;;;;16.30;42.40;;;;;;8369656;28;19928;-49
2021/11/08 02:59:18;;;;;;;;;;;16.40;42.50;;;;;;8367238;28;20012;-48
2021/11/08 03:03:19;;;;;;;;;;;16.30;42.40;;;;;;8367664;28;19921;-49
2021/11/08 03:07:22;;;;;;;;;;;16.30;42.50;;;;;;8367334;28;19923;-48
2021/11/08 03:11:23;;;;;;;;;;;16.30;42.50;;;;;;8367027;28;19917;-48
2021/11/08 03:19:38;;;;;;;;;;;16.40;42.50;;;;;;8367475;28;19920;-49
2021/11/08 03:23:39;;;;;;;;;;;16.40;42.50;;;;;;8366843;28;19921;-49
2021/11/08 03:27:53;;;;;;;;;;;16.30;42.50;;;;;;8366856;28;19917;-49
2021/11/08 03:31:54;;;;;;;;;;;16.30;42.50;;;;;;8366750;28;19985;-48
2021/11/08 03:35:57;;;;;;;;;;;16.30;42.50;;;;;;8365820;28;19921;-49
2021/11/08 03:39:57;;;;;;;;;;;16.30;42.50;;;;;;8366648;28;19916;-49
2021/11/08 03:43:58;;;;;;;;;;;16.30;42.50;;;;;;8366268;28;20366;-50
2021/11/08 03:47:59;;;;;;;;;;;16.30;42.50;;;;;;8365905;28;19963;-50
2021/11/08 03:52:00;;;;;;;;;;;16.30;42.50;;;;;;8366163;28;19924;-49
2021/11/08 03:56:01;;;;;;;;;;;16.30;42.50;;;;;;8366431;28;19952;-50
2021/11/08 04:00:05;;;;;;;;;;;16.30;42.50;;;;;;8365422;28;19924;-51
2021/11/08 04:04:06;;;;;;;;;;;16.30;42.50;;;;;;8365367;28;19975;-47
2021/11/08 04:08:09;;;;;;;;;;;16.30;42.50;;;;;;8365883;28;19996;-48
2021/11/08 04:12:10;;;;;;;;;;;16.30;42.50;;;;;;8364899;28;19917;-46
2021/11/08 04:16:13;;;;;;;;;;;16.20;42.60;;;;;;8365242;28;19924;-48
2021/11/08 04:20:17;;;;;;;;;;;16.20;42.60;;;;;;8365094;28;19996;-47
2021/11/08 04:24:18;;;;;;;;;;;16.30;42.60;;;;;;8365051;28;20374;-47
2021/11/08 04:28:18;;;;;;;;;;;16.30;42.60;;;;;;8365083;28;19913;-48
2021/11/08 04:32:19;;;;;;;;;;;16.30;42.60;;;;;;8364306;28;19917;-48
2021/11/08 04:36:43;;;;;;;;;;;16.30;42.60;;;;;;8365085;28;20010;-48
2021/11/08 04:49:14;;;;;;;;;;;16.40;42.60;;;;;;8369064;28;19944;-48
2021/11/08 05:31:05;;;;;;;;;;;16.40;42.40;;;;;;8369519;28;19917;-48
2021/11/08 05:35:06;;;;;;;;;;;16.40;42.40;;;;;;8363489;28;19917;-48
2021/11/08 05:39:08;;;;;;;;;;;16.40;42.40;;;;;;8362943;28;20307;-48
2021/11/08 05:43:08;;;;;;;;;;;16.40;42.40;;;;;;8363399;28;19925;-47
2021/11/08 05:47:09;;;;;;;;;;;16.40;42.40;;;;;;8363543;28;19920;-52
2021/11/08 05:51:09;;;;;;;;;;;16.40;42.50;;;;;;8362664;28;19916;-49
2021/11/08 05:55:10;;;;;;;;;;;16.30;42.40;;;;;;8363141;28;20264;-48
2021/11/08 05:59:23;;;;;;;;;;;16.30;42.40;;;;;;8367053;28;20377;-48
2021/11/08 06:51:10;;;;;;;;;;;16.20;42.40;;;;;;8367747;28;19924;-49
2021/11/08 06:55:11;;;;;;;;;;;16.20;42.40;;;;;;8368137;28;19921;-49
2021/11/08 06:59:11;;;;;;;;;;;16.20;42.40;;;;;;8367944;28;19943;-49
2021/11/08 07:03:12;;;;;;;;;;;16.20;42.30;;;;;;8367260;28;19928;-48
2021/11/08 07:07:14;;;;;;;;;;;16.20;42.40;;;;;;8367660;28;19921;-50
2021/11/08 07:11:15;;;;;;;;;;;16.20;42.30;;;;;;8366454;28;19916;-48
2021/11/08 07:15:15;;;;;;;;;;;16.20;42.80;;;;;;8366989;28;20253;-50
2021/11/08 07:19:16;;;;;;;;;;;16.20;42.30;;;;;;8367603;28;19924;-49
2021/11/08 07:23:17;;;;;;;;;;;16.20;42.30;;;;;;8366388;28;19928;-51
2021/11/08 07:27:17;;;;;;;;;;;16.20;42.20;;;;;;8366819;28;20011;-50
2021/11/08 07:31:18;;;;;;;;;;;16.30;42.30;;;;;;8366876;28;19919;-50
2021/11/08 07:35:18;;;;;;;;;;;16.20;42.20;;;;;;8366592;28;19917;-49
2021/11/08 07:39:19;;;;;;;;;;;16.30;42.30;;;;;;8366826;28;19916;-49
2021/11/08 07:43:20;;;;;;;;;;;16.20;42.20;;;;;;8366425;28;19924;-49
2021/11/08 07:47:20;;;;;;;;;;;16.20;42.20;;;;;;8365905;28;19967;-48
2021/11/08 07:51:21;;;;;;;;;;;16.20;42.20;;;;;;8366189;28;19977;-48
2021/11/08 07:55:22;;;;;;;;;;;16.30;42.30;;;;;;8366223;28;19921;-48
2021/11/08 07:59:22;;;;;;;;;;;16.20;42.20;;;;;;8365488;28;19923;-49
2021/11/08 08:03:24;;;;;;;;;;;16.20;42.20;;;;;;8365660;28;19925;-49
2021/11/08 08:07:25;;;;;;;;;;;16.20;42.20;;;;;;8365753;28;19920;-49
2021/11/08 08:11:25;;;;;;;;;;;16.20;42.20;;;;;;8342180;28;19924;-49
2021/11/08 08:15:26;;;;;;;;;;;16.20;42.20;;;;;;8361026;28;19962;-48
2021/11/08 08:19:26;;;;;;;;;;;16.20;42.20;;;;;;8359059;28;19924;-49
2021/11/08 08:23:27;;;;;;;;;;;16.20;42.20;;;;;;8360566;28;20297;-49
2021/11/08 08:27:28;;;;;;;;;;;16.20;42.20;;;;;;8360241;28;19924;-49
2021/11/08 08:31:28;;;;;;;;;;;16.20;42.20;;;;;;8364226;28;19920;-47
2021/11/08 08:35:29;;;;;;;;;;;16.20;42.20;;;;;;8361019;28;19916;-48
2021/11/08 08:39:29;;;;;;;;;;;16.20;42.20;;;;;;8357729;28;19917;-47
2021/11/08 08:43:30;;;;;;;;;;;16.20;42.20;;;;;;8358217;28;20366;-48
2021/11/08 08:47:30;;;;;;;;;;;16.20;42.20;;;;;;8359978;28;19917;-50
2021/11/08 08:51:31;;;;;;;;;;;16.20;42.20;;;;;;8358468;28;19925;-50
2021/11/08 08:55:32;;;;;;;;;;;16.20;42.10;;;;;;8359817;28;19920;-52
2021/11/08 08:59:32;;;;;;;;;;;16.30;42.20;;;;;;8360101;28;20400;-51
2021/11/08 09:03:33;;;;;;;;;;;16.30;42.10;;;;;;8359137;28;19939;-51
2021/11/08 09:07:34;;;;;;;;;;;16.20;42.10;;;;;;8357731;28;19917;-50
2021/11/08 09:11:34;;;;;;;;;;;16.30;42.10;;;;;;8359696;28;20404;-51
2021/11/08 09:15:36;;;;;;;;;;;16.30;42.10;;;;;;8357849;28;20027;-49
2021/11/08 09:19:36;;;;;;;;;;;16.30;42.10;;;;;;8361675;28;19931;-52
2021/11/08 09:23:37;;;;;;;;;;;16.30;42.10;;;;;;8359262;28;20370;-49
2021/11/08 09:27:38;;;;;;;;;;;16.30;42.00;;;;;;8360045;28;19917;-49
2021/11/08 09:31:38;;;;;;;;;;;16.30;42.00;;;;;;8359622;28;19924;-49
2021/11/08 09:35:44;;;;;;;;;;;16.30;42.10;;;;;;8365199;28;19970;-48
2021/11/08 09:39:46;;;;;;;;;;;16.30;42.10;;;;;;8364989;28;19921;-49
2021/11/08 09:43:48;;;;;;;;;;;16.30;42.10;;;;;;8366598;28;19925;-50
2021/11/08 09:47:48;;;;;;;;;;;16.30;42.10;;;;;;8364080;28;19917;-49
2021/11/08 09:51:49;;;;;;;;;;;16.30;42.10;;;;;;8366313;28;19978;-47
2021/11/08 09:55:50;;;;;;;;;;;16.30;42.10;;;;;;8366174;28;19928;-48
2021/11/08 09:59:51;;;;;;;;;;;16.30;42.10;;;;;;8363870;28;19975;-49
2021/11/08 10:03:53;;;;;;;;;;;16.30;42.10;;;;;;8366578;28;19925;-52
2021/11/08 10:07:56;;;;;;;;;;;16.30;42.10;;;;;;8365392;28;20433;-52
2021/11/08 10:11:56;;;;;;;;;;;16.40;42.10;;;;;;8364962;28;20270;-52
2021/11/08 10:15:59;;;;;;;;;;;16.40;42.10;;;;;;8359445;28;19917;-48
2021/11/08 10:20:00;;;;;;;;;;;16.30;42.00;;;;;;8364269;28;19917;-48
2021/11/08 10:24:03;;;;;;;;;;;16.40;42.10;;;;;;8363729;28;19925;-50
2021/11/08 10:28:07;;;;;;;;;;;16.40;42.10;;;;;;8365365;28;20404;-48
2021/11/08 10:32:09;;;;;;;;;;;16.40;42.10;;;;;;8365854;28;19948;-49
2021/11/08 10:36:11;;;;;;;;;;;16.40;42.10;;;;;;8363608;28;20008;-49
2021/11/08 10:40:16;;;;;;;;;;;16.40;42.10;;;;;;8362822;28;20008;-49
2021/11/08 10:44:17;;;;;;;;;;;16.40;42.10;;;;;;8362691;28;19932;-48
2021/11/08 10:48:23;;;;;;;;;;;16.40;42.10;;;;;;8362497;28;20285;-49
2021/11/08 10:52:27;;;;;;;;;;;16.40;42.10;;;;;;8360971;28;19924;-48
2021/11/08 10:56:28;;;;;;;;;;;16.40;42.10;;;;;;8364543;28;20392;-47
2021/11/08 11:00:28;;;;;;;;;;;16.50;42.00;;;;;;8361430;28;19917;-49
2021/11/08 11:04:31;;;;;;;;;;;16.50;42.00;;;;;;8359308;28;19936;-48
2021/11/08 11:08:32;;;;;;;;;;;16.50;42.00;;;;;;8369948;28;19917;-48
2021/11/08 11:12:34;;;;;;;;;;;16.50;42.00;;;;;;8363497;28;20369;-49
2021/11/08 11:16:34;;;;;;;;;;;16.50;41.90;;;;;;8361771;28;19931;-48
2021/11/08 11:20:37;;;;;;;;;;;16.50;41.90;;;;;;8361309;28;19929;-48
2021/11/08 11:24:43;;;;;;;;;;;16.50;41.90;;;;;;8361753;28;19924;-49
2021/11/08 11:28:46;;;;;;;;;;;16.50;42.40;;;;;;8367108;28;19917;-49
2021/11/08 11:33:06;;;;;;;;;;;16.60;42.00;;;;;;8366523;28;20007;-48
2021/11/08 11:37:17;;;;;;;;;;;16.50;42.00;;;;;;8367026;28;19920;-48
2021/11/08 11:41:19;;;;;;;;;;;16.50;41.90;;;;;;8366526;28;19978;-48
2021/11/08 11:45:20;;;;;;;;;;;16.60;42.00;;;;;;8366346;28;19932;-49
2021/11/08 11:49:21;;;;;;;;;;;16.60;41.90;;;;;;8366257;28;19920;-48
2021/11/08 11:53:23;;;;;;;;;;;16.60;41.90;;;;;;8365897;28;19912;-48
2021/11/08 11:57:23;;;;;;;;;;;16.60;41.90;;;;;;8366041;28;20358;-49
2021/11/08 12:01:25;;;;;;;;;;;16.60;41.90;;;;;;8366170;28;19916;-49
2021/11/08 12:05:25;;;;;;;;;;;16.60;41.90;;;;;;8365213;28;19932;-51
2021/11/08 12:09:29;;;;;;;;;;;16.60;41.90;;;;;;8365518;28;19923;-47
2021/11/08 12:13:30;;;;;;;;;;;16.60;41.90;;;;;;8365556;28;19913;-49
2021/11/08 12:17:34;;;;;;;;;;;16.70;41.90;;;;;;8365055;28;19917;-49
2021/11/08 12:21:36;;;;;;;;;;;16.60;41.80;;;;;;8365356;28;19917;-49
2021/11/08 12:25:39;;;;;;;;;;;16.70;41.90;;;;;;8365209;28;19931;-50
2021/11/08 12:29:52;;;;;;;;;;;16.70;41.90;;;;;;8364716;28;19917;-48
2021/11/08 12:33:59;;;;;;;;;;;16.70;41.80;;;;;;8364834;28;19913;-49
2021/11/08 12:38:00;;;;;;;;;;;16.70;41.80;;;;;;8364808;28;19963;-50
2021/11/08 12:42:04;;;;;;;;;;;16.70;41.80;;;;;;8364724;28;19913;-49
2021/11/08 12:46:11;;;;;;;;;;;16.70;41.80;;;;;;8364840;28;20381;-52
2021/11/08 12:50:12;;;;;;;;;;;16.80;41.80;;;;;;8364634;28;19956;-49
2021/11/08 12:54:13;;;;;;;;;;;16.80;41.90;;;;;;8364568;28;19920;-49
2021/11/08 12:58:14;;;;;;;;;;;16.80;41.80;;;;;;8364423;28;19963;-52
2021/11/08 13:02:26;;;;;;;;;;;16.80;41.80;;;;;;8364674;28;20344;-50
2021/11/08 13:06:28;;;;;;;;;;;16.80;41.80;;;;;;8363480;28;19917;-51
2021/11/08 13:10:31;;;;;;;;;;;16.80;41.80;;;;;;8363871;28;20396;-49
2021/11/08 13:14:36;;;;;;;;;;;16.80;41.80;;;;;;8363533;28;19917;-49
2021/11/08 13:18:38;;;;;;;;;;;16.80;41.80;;;;;;8364530;28;19940;-49
2021/11/08 13:22:40;;;;;;;;;;;16.80;41.80;;;;;;8364024;28;19921;-51
2021/11/08 13:26:41;;;;;;;;;;;16.80;41.80;;;;;;8363670;28;19966;-48
2021/11/08 13:30:45;;;;;;;;;;;16.80;41.70;;;;;;8363978;28;19917;-49
2021/11/08 13:34:45;;;;;;;;;;;16.80;42.30;;;;;;8363596;28;19921;-49
2021/11/08 13:38:48;;;;;;;;;;;16.80;41.80;;;;;;8363072;28;19963;-49
2021/11/08 13:42:51;;;;;;;;;;;16.80;41.80;;;;;;8363621;28;19920;-50
2021/11/08 13:46:53;;;;;;;;;;;16.80;41.70;;;;;;8363800;28;19912;-49
2021/11/08 13:50:55;;;;;;;;;;;16.80;41.70;;;;;;8363045;28;20427;-49
2021/11/08 13:54:56;;;;;;;;;;;16.80;41.80;;;;;;8363892;28;20271;-50
2021/11/08 13:58:56;;;;;;;;;;;16.80;41.70;;;;;;8363318;28;19970;-50
2021/11/08 14:02:57;;;;;;;;;;;16.90;41.70;;;;;;8362615;28;19920;-49
2021/11/08 14:06:57;;;;;;;;;;;16.90;41.70;;;;;;8363151;28;20346;-50
2021/11/08 14:10:59;;;;;;;;;;;16.90;41.70;;;;;;8344845;28;19948;-52
2021/11/08 14:15:00;;;;;;;;;;;16.90;41.70;;;;;;8346048;28;19971;-49
2021/11/08 14:19:01;;;;;;;;;;;16.90;41.70;;;;;;8364523;28;20378;-49
2021/11/08 14:23:02;;;;;;;;;;;16.90;41.70;;;;;;8369327;28;19990;-49
2021/11/08 14:27:04;;;;;;;;;;;16.90;41.70;;;;;;8368797;28;19924;-49
2021/11/08 14:31:15;;;;;;;;;;;16.90;41.70;;;;;;8368795;28;19917;-48
2021/11/08 14:35:18;;;;;;;;;;;16.90;41.80;;;;;;8368796;28;19927;-50
2021/11/08 14:39:22;;;;;;;;;;;16.80;41.70;;;;;;8368440;28;19917;-49
2021/11/08 14:43:25;;;;;;;;;;;16.80;41.70;;;;;;8368706;28;19921;-50
2021/11/08 14:47:27;;;;;;;;;;;16.80;41.70;;;;;;8368159;28;19964;-49
2021/11/08 14:51:28;;;;;;;;;;;16.80;41.70;;;;;;8367971;28;19917;-51
2021/11/08 14:55:33;;;;;;;;;;;16.80;41.80;;;;;;8368423;28;19944;-49
2021/11/08 14:59:35;;;;;;;;;;;16.80;41.80;;;;;;8367275;28;20379;-49
2021/11/08 15:03:35;;;;;;;;;;;16.80;41.80;;;;;;8367749;28;19925;-50
2021/11/08 15:07:38;;;;;;;;;;;16.80;41.80;;;;;;8367869;28;19920;-48
2021/11/08 15:11:39;;;;;;;;;;;16.80;41.80;;;;;;8366852;28;20292;-50
2021/11/08 15:15:41;;;;;;;;;;;16.80;41.80;;;;;;8367387;28;19920;-51
2021/11/08 15:19:45;;;;;;;;;;;16.80;41.80;;;;;;8367047;28;20015;-49
2021/11/08 15:23:46;;;;;;;;;;;16.80;41.80;;;;;;8366432;28;19983;-49
2021/11/08 15:27:56;;;;;;;;;;;16.80;41.70;;;;;;8367171;28;19994;-51
2021/11/08 15:31:57;;;;;;;;;;;16.80;41.70;;;;;;8366102;28;19917;-51
2021/11/08 15:36:03;;;;;;;;;;;16.80;41.80;;;;;;8366828;28;19924;-52
2021/11/08 15:40:03;;;;;;;;;;;16.80;41.80;;;;;;8366431;28;19923;-50
2021/11/08 15:44:04;;;;;;;;;;;16.80;41.80;;;;;;8366469;28;20382;-50
2021/11/08 15:48:05;;;;;;;;;;;16.80;41.80;;;;;;8366017;28;19927;-50
2021/11/08 15:52:05;;;;;;;;;;;16.80;41.70;;;;;;8366049;28;19928;-49
2021/11/08 15:56:06;;;;;;;;;;;16.80;41.80;;;;;;8366221;28;19928;-49
2021/11/08 16:00:07;;;;;;;;;;;16.80;41.70;;;;;;8365167;28;20025;-49
2021/11/08 16:04:07;;;;;;;;;;;16.80;41.70;;;;;;8365905;28;20014;-52
2021/11/08 16:08:08;;;;;;;;;;;16.80;41.70;;;;;;8365727;28;19919;-49
2021/11/08 16:12:08;;;;;;;;;;;16.80;41.70;;;;;;8365173;28;20404;-49
2021/11/08 16:16:09;;;;;;;;;;;16.80;41.70;;;;;;8365986;28;19952;-49
2021/11/08 16:20:10;;;;;;;;;;;16.80;41.70;;;;;;8365341;28;19921;-51
2021/11/08 16:24:10;;;;;;;;;;;16.80;41.70;;;;;;8364469;28;19928;-52
2021/11/08 16:28:11;;;;;;;;;;;16.80;41.70;;;;;;8365133;28;19913;-49
2021/11/08 16:32:14;;;;;;;;;;;16.80;41.70;;;;;;8364862;28;20525;-50
2021/11/08 16:36:15;;;;;;;;;;;16.80;41.70;;;;;;8364508;28;20347;-48
2021/11/08 16:40:16;;;;;;;;;;;16.80;41.70;;;;;;8364477;28;19921;-49
2021/11/08 16:44:16;;;;;;;;;;;16.80;41.70;;;;;;8363920;28;19920;-47
2021/11/08 16:48:17;;;;;;;;;;;16.80;41.90;;;;;;8364564;28;19912;-52
2021/11/08 16:52:18;;;;;;;;;;;16.80;41.70;;;;;;8364266;28;20375;-52
2021/11/08 16:56:18;;;;;;;;;;;16.80;41.70;;;;;;8362704;28;20439;-49
2021/11/08 17:00:20;;;;;;;;;;;16.80;41.70;;;;;;8364186;28;19916;-51
2021/11/08 17:04:22;;;;;;;;;;;16.80;41.70;;;;;;8363985;28;19920;-50
2021/11/08 17:17:01;;;;;;;;;;;16.80;41.70;;;;;;8365951;28;20328;-49
2021/11/08 17:21:03;;;;;;;;;;;16.80;41.70;;;;;;8363442;28;20378;-50
2021/11/08 17:25:05;;;;;;;;;;;16.70;41.70;;;;;;8363711;28;20316;-50
2021/11/08 17:29:06;;;;;;;;;;;16.80;41.70;;;;;;8363706;28;20020;-48
2021/11/08 17:33:06;;;;;;;;;;;16.70;41.70;;;;;;8363199;28;19920;-49
2021/11/08 17:37:07;;;;;;;;;;;16.70;41.70;;;;;;8363522;28;19916;-51
2021/11/08 17:41:08;;;;;;;;;;;16.70;41.70;;;;;;8363438;28;19917;-50
2021/11/08 17:45:10;;;;;;;;;;;16.70;41.70;;;;;;8362775;28;19975;-52
2021/11/08 17:49:10;;;;;;;;;;;16.70;41.70;;;;;;8363420;28;20298;-50
2021/11/08 17:53:11;;;;;;;;;;;16.70;41.80;;;;;;8363656;28;19917;-50
2021/11/08 17:57:11;;;;;;;;;;;16.70;41.70;;;;;;8369986;28;19920;-49
2021/11/08 18:01:12;;;;;;;;;;;16.70;41.70;;;;;;8369754;28;19948;-50
2021/11/08 18:05:13;;;;;;;;;;;16.70;41.80;;;;;;8369255;28;20270;-51
2021/11/08 18:09:14;;;;;;;;;;;16.70;41.70;;;;;;8369488;28;20000;-53
2021/11/08 18:13:15;;;;;;;;;;;16.70;41.70;;;;;;8369275;28;20377;-51
2021/11/08 18:17:15;;;;;;;;;;;16.70;41.70;;;;;;8369417;28;19998;-54
2021/11/08 18:21:23;;;;;;;;;;;16.70;41.70;;;;;;8368531;28;19920;-53
2021/11/08 18:29:33;;;;;;;;;;;16.70;41.70;;;;;;8370393;28;19917;-51
2021/11/08 18:33:34;;;;;;;;;;;16.70;41.70;;;;;;8368513;28;20000;-49
2021/11/08 18:37:36;;;;;;;;;;;16.70;41.70;;;;;;8368520;28;19917;-49
2021/11/08 18:41:36;;;;;;;;;;;16.70;41.70;;;;;;8367762;28;20042;-51
2021/11/08 18:45:37;;;;;;;;;;;16.70;41.70;;;;;;8368156;28;19921;-53
2021/11/08 18:49:37;;;;;;;;;;;16.70;41.70;;;;;;8368707;28;19917;-52
2021/11/08 18:53:38;;;;;;;;;;;16.70;41.70;;;;;;8367706;28;19917;-52
2021/11/08 18:57:40;;;;;;;;;;;16.70;41.70;;;;;;8368356;28;19921;-49
2021/11/08 19:01:53;;;;;;;;;;;16.70;41.70;;;;;;8368441;28;19913;-53
2021/11/08 19:06:10;;;;;;;;;;;16.70;41.70;;;;;;8365141;28;19929;-51
2021/11/08 19:10:13;;;;;;;;;;;16.60;41.70;;;;;;8367788;28;19935;-53
2021/11/08 19:14:13;;;;;;;;;;;16.70;41.70;;;;;;8367720;28;19928;-50
2021/11/08 19:18:14;;;;;;;;;;;16.70;41.70;;;;;;8366792;28;20354;-49
2021/11/08 19:22:14;;;;;;;;;;;16.70;41.70;;;;;;8366840;28;19937;-49
2021/11/08 19:26:15;;;;;;;;;;;16.70;41.70;;;;;;8367314;28;19917;-50
2021/11/08 19:30:16;;;;;;;;;;;16.60;41.80;;;;;;8365868;28;19920;-50
2021/11/08 19:38:25;;;;;;;;;;;16.60;41.70;;;;;;8368656;28;19999;-51
2021/11/08 19:42:26;;;;;;;;;;;16.60;41.70;;;;;;8366715;28;19920;-49
2021/11/08 19:46:27;;;;;;;;;;;16.60;42.20;;;;;;8366702;28;19916;-51
2021/11/08 19:50:35;;;;;;;;;;;16.60;41.70;;;;;;8365948;28;20270;-53
2021/11/08 19:54:36;;;;;;;;;;;16.60;41.70;;;;;;8366829;28;20314;-49
2021/11/08 19:58:37;;;;;;;;;;;16.60;41.60;;;;;;8366270;28;20024;-51
2021/11/08 20:02:39;;;;;;;;;;;16.60;41.70;;;;;;8365540;28;19924;-49
2021/11/08 20:06:40;;;;;;;;;;;16.60;41.60;;;;;;8354327;28;19963;-51
2021/11/08 20:10:42;;;;;;;;;;;16.60;41.60;;;;;;8365299;28;19951;-51
2021/11/08 20:14:45;;;;;;;;;;;16.60;41.60;;;;;;8365376;28;19913;-49
2021/11/08 20:18:45;;;;;;;;;;;16.60;41.70;;;;;;8365142;28;20285;-51
2021/11/08 20:22:46;;;;;;;;;;;16.60;41.60;;;;;;8365112;28;20015;-48
2021/11/08 20:26:46;;;;;;;;;;;16.60;41.60;;;;;;8364892;28;20293;-49
2021/11/08 20:30:54;;;;;;;;;;;16.60;41.70;;;;;;8365323;28;19966;-49
2021/11/08 21:00:16;;;;;;;;;;;16.60;41.70;;;;;;8364188;28;20004;-49
2021/11/08 21:04:33;;;;;;;;;;;16.60;41.70;;;;;;8364340;28;19925;-53
2021/11/08 21:09:13;;;;;;;;;;;16.60;41.70;;;;;;8365583;28;19912;-53
2021/11/08 21:13:23;;;;;;;;;;;16.50;41.60;;;;;;8363803;28;19924;-52
2021/11/08 21:17:24;;;;;;;;;;;16.50;41.60;;;;;;8362390;28;19920;-52
2021/11/08 21:21:26;;;;;;;;;;;16.50;41.60;;;;;;8363535;28;19913;-50
2021/11/08 21:25:28;;;;;;;;;;;16.60;41.70;;;;;;8362644;28;19948;-50
2021/11/08 21:29:58;;;;;;;;;;;16.50;41.60;;;;;;8362433;28;19917;-48
2021/11/08 21:38:13;;;;;;;;;;;16.50;41.60;;;;;;8367043;28;19913;-49
2021/11/08 21:42:13;;;;;;;;;;;16.50;41.60;;;;;;8362895;28;19921;-48
2021/11/08 21:46:14;;;;;;;;;;;16.50;41.60;;;;;;8363503;28;19913;-50
2021/11/08 21:50:15;;;;;;;;;;;16.50;41.60;;;;;;8363608;28;19924;-51
2021/11/08 21:54:16;;;;;;;;;;;16.50;41.60;;;;;;8362811;28;19924;-51
2021/11/08 21:58:17;;;;;;;;;;;16.50;41.60;;;;;;8363435;28;19924;-50
2021/11/08 22:02:19;;;;;;;;;;;16.50;41.60;;;;;;8362708;28;19939;-50
2021/11/08 22:06:19;;;;;;;;;;;16.50;41.60;;;;;;8363591;28;20020;-49
2021/11/08 22:10:20;;;;;;;;;;;16.50;41.60;;;;;;8363363;28;19913;-49
2021/11/08 22:14:21;;;;;;;;;;;16.50;41.60;;;;;;8362683;28;19932;-49
2021/11/08 22:18:21;;;;;;;;;;;16.50;41.50;;;;;;8363160;28;19917;-49
2021/11/08 22:22:22;;;;;;;;;;;16.50;41.50;;;;;;8362892;28;20012;-49
2021/11/08 22:26:22;;;;;;;;;;;16.50;41.50;;;;;;8362425;28;19916;-51
2021/11/08 22:30:23;;;;;;;;;;;16.50;41.40;;;;;;8363189;28;19920;-48
2021/11/08 22:34:23;;;;;;;;;;;16.50;41.40;;;;;;8362607;28;19924;-48
2021/11/08 22:38:25;;;;;;;;;;;16.50;41.40;;;;;;8362141;28;20335;-48
2021/11/08 22:42:25;;;;;;;;;;;16.50;41.30;;;;;;8367752;28;19971;-49
2021/11/08 22:46:26;;;;;;;;;;;16.50;41.30;;;;;;8368454;28;19925;-50
2021/11/08 22:50:26;;;;;;;;;;;16.50;41.30;;;;;;8368093;28;20270;-49
2021/11/08 22:54:26;;;;;;;;;;;16.50;41.30;;;;;;8368382;28;19921;-52
2021/11/08 22:58:27;;;;;;;;;;;16.50;41.20;;;;;;8368365;28;20422;-50
2021/11/08 23:02:28;;;;;;;;;;;16.50;41.30;;;;;;8360181;28;19917;-49
2021/11/08 23:06:28;;;;;;;;;;;16.50;41.30;;;;;;8367936;28;19992;-48
2021/11/08 23:10:29;;;;;;;;;;;16.50;41.40;;;;;;8338977;28;20345;-51
2021/11/08 23:14:29;;;;;;;;;;;16.50;41.40;;;;;;8358152;28;19917;-49
2021/11/08 23:18:31;;;;;;;;;;;16.50;41.40;;;;;;8367552;28;19924;-50
2021/11/08 23:22:32;;;;;;;;;;;16.50;41.40;;;;;;8367271;28;19924;-48
2021/11/08 23:26:33;;;;;;;;;;;16.40;41.40;;;;;;8367202;28;20255;-50
2021/11/08 23:30:33;;;;;;;;;;;16.40;41.40;;;;;;8367220;28;20023;-52
2021/11/08 23:34:34;;;;;;;;;;;16.40;41.50;;;;;;8366845;28;19924;-48
2021/11/08 23:38:35;;;;;;;;;;;16.40;41.40;;;;;;8366509;28;19921;-49
2021/11/08 23:42:35;;;;;;;;;;;16.40;41.50;;;;;;8366803;28;19929;-51
2021/11/08 23:46:36;;;;;;;;;;;16.40;41.40;;;;;;8366773;28;19924;-50
2021/11/08 23:50:36;;;;;;;;;;;16.40;41.40;;;;;;8366225;28;20877;-49
2021/11/08 23:54:37;;;;;;;;;;;16.40;41.40;;;;;;8366227;28;19920;-50
2021/11/08 23:58:38;;;;;;;;;;;16.40;41.40;;;;;;8366315;28;19924;-49
